Time;durP1;ratioP1;P1;durP2;ratioP2;P2;SDS_P1;SDS_P2;PMS_P1;PMS_P2;Temp;Humidity;BMP_temperature;BMP_pressure;BME280_temperature;BME280_humidity;BME280_pressure;Samples;Min_cycle;Max_cycle;Signal;HPM_P1;HPM_P2
2021/04/20 00:02:10;;;;;;;8.27;4.75;;;6.50;99.90;;;6.00;91.90;100528.59;5077367;28;20040;-46
2021/04/20 00:04:36;;;;;;;6.72;4.82;;;6.50;99.90;;;5.97;92.11;100518.47;5086585;28;20031;-42
2021/04/20 00:07:03;;;;;;;10.32;5.30;;;6.50;99.90;;;5.99;92.73;100526.94;5087026;28;20114;-44
2021/04/20 00:09:29;;;;;;;10.50;7.18;;;6.50;99.90;;;6.01;92.30;100519.06;5086632;28;20040;-46
2021/04/20 00:11:55;;;;;;;9.52;5.57;;;6.50;99.90;;;6.00;91.99;100515.66;5087320;28;20028;-45
2021/04/20 00:14:21;;;;;;;7.88;5.13;;;6.50;99.90;;;5.99;92.23;100521.78;5087006;28;20379;-44
2021/04/20 00:16:47;;;;;;;6.03;4.45;;;6.50;99.90;;;5.97;93.01;100514.13;5086781;28;20040;-43
2021/04/20 00:19:13;;;;;;;6.50;4.47;;;6.50;99.90;;;5.99;92.29;100512.25;5086505;28;20028;-44
2021/04/20 00:21:39;;;;;;;6.53;4.18;;;6.50;99.90;;;5.96;92.42;100507.31;5086663;28;20039;-46
2021/04/20 00:24:05;;;;;;;4.70;3.47;;;6.50;99.90;;;5.94;92.29;100504.00;5086800;28;20390;-47
2021/04/20 00:26:31;;;;;;;4.45;3.05;;;6.50;99.90;;;5.95;91.54;100505.66;5086279;28;20032;-51
2021/04/20 00:28:58;;;;;;;6.28;3.08;;;6.40;99.90;;;5.95;91.02;100504.81;5086549;28;20108;-44
2021/04/20 00:31:24;;;;;;;4.20;2.08;;;6.40;99.90;;;5.88;90.86;100501.84;5086812;28;20136;-49
2021/04/20 00:33:49;;;;;;;3.25;2.25;;;6.40;99.90;;;5.73;90.99;100496.97;5086745;28;20083;-45
2021/04/20 00:36:15;;;;;;;5.38;2.30;;;6.30;99.90;;;5.62;91.74;100505.53;5087068;28;20052;-40
2021/04/20 00:38:41;;;;;;;2.72;2.03;;;6.20;99.90;;;5.70;91.30;100507.53;5086890;28;20123;-45
2021/04/20 00:41:12;;;;;;;5.32;2.58;;;6.20;99.90;;;5.80;90.95;100500.75;5086399;28;20067;-47
2021/04/20 00:43:44;;;;;;;3.30;1.98;;;6.30;99.90;;;5.88;90.01;100495.84;5087732;28;20048;-43
2021/04/20 00:46:24;;;;;;;2.75;1.88;;;6.30;99.90;;;5.87;89.54;100501.94;5090162;28;20050;-42
2021/04/20 00:48:51;;;;;;;5.32;2.20;;;6.40;99.90;;;5.90;89.10;100501.75;5090782;28;20043;-45
2021/04/20 00:51:18;;;;;;;2.95;1.75;;;6.40;99.90;;;5.89;89.62;100500.94;5090572;28;20028;-44
2021/04/20 00:53:46;;;;;;;3.35;2.05;;;6.40;99.90;;;5.87;89.25;100505.38;5090996;28;20046;-43
2021/04/20 00:56:14;;;;;;;3.22;2.25;;;6.40;99.90;;;5.85;89.53;100502.06;5089986;28;20111;-41
2021/04/20 00:58:40;;;;;;;3.42;2.28;;;6.40;99.90;;;5.85;89.37;100494.31;5090560;28;20100;-45
2021/04/20 01:01:06;;;;;;;2.95;1.98;;;6.40;99.90;;;5.75;89.78;100498.50;5090053;28;20043;-46
2021/04/20 01:03:32;;;;;;;4.75;2.92;;;6.30;99.90;;;5.68;89.74;100494.72;5090166;28;20079;-40
2021/04/20 01:06:01;;;;;;;3.47;2.47;;;6.20;99.90;;;5.70;90.27;100497.19;5090277;28;20040;-43
2021/04/20 01:08:28;;;;;;;3.40;2.50;;;6.20;99.90;;;5.78;89.51;100495.69;5090000;28;20024;-45
2021/04/20 01:10:57;;;;;;;4.50;2.95;;;6.30;99.90;;;5.76;89.55;100499.31;5090114;28;20024;-43
2021/04/20 01:13:32;;;;;;;3.83;2.38;;;6.30;99.90;;;5.73;89.93;100494.38;5089748;28;20036;-41
2021/04/20 01:15:59;;;;;;;4.90;3.17;;;6.30;99.90;;;5.71;90.15;100493.66;5090069;28;20027;-44
2021/04/20 01:18:30;;;;;;;5.63;3.05;;;6.30;99.90;;;5.66;90.55;100492.28;5089852;28;20303;-41
2021/04/20 01:21:16;;;;;;;6.47;3.38;;;6.20;99.90;;;5.64;90.58;100488.97;5089963;28;20074;-44
2021/04/20 01:24:08;;;;;;;3.78;2.33;;;6.20;99.90;;;5.65;90.55;100488.03;5082720;28;20524;-41
2021/04/20 01:26:45;;;;;;;3.28;2.20;;;6.20;99.90;;;5.62;90.42;100487.44;5089720;28;20044;-46
2021/04/20 01:29:12;;;;;;;5.47;3.38;;;6.20;99.90;;;5.51;90.36;100485.63;5089811;28;20040;-43
2021/04/20 01:31:44;;;;;;;6.03;3.55;;;6.10;99.90;;;5.34;91.38;100493.75;5089183;28;20032;-45
2021/04/20 01:34:11;;;;;;;6.22;4.35;;;6.00;99.90;;;5.25;91.27;100499.59;5089896;28;20170;-40
2021/04/20 01:36:38;;;;;;;4.38;3.75;;;5.90;99.90;;;5.20;91.95;100499.13;5089598;28;20115;-44
2021/04/20 01:39:10;;;;;;;5.65;4.10;;;5.80;99.90;;;5.17;91.92;100495.00;5089241;28;20039;-43
2021/04/20 01:41:38;;;;;;;3.80;3.45;;;5.80;99.90;;;5.16;92.29;100500.28;5089556;28;20035;-44
2021/04/20 01:44:05;;;;;;;5.20;3.58;;;5.80;99.90;;;5.14;92.52;100494.38;5089799;28;20116;-42
2021/04/20 01:46:33;;;;;;;4.40;3.97;;;5.70;99.90;;;5.06;92.36;100496.69;5089272;28;20106;-42
2021/04/20 01:48:59;;;;;;;3.97;3.15;;;5.70;99.90;;;5.02;92.57;100498.66;5089591;28;20024;-42
2021/04/20 01:51:28;;;;;;;4.07;2.80;;;5.60;99.90;;;5.04;92.52;100495.97;5089005;28;20043;-41
2021/04/20 01:53:55;;;;;;;3.60;2.72;;;5.60;99.90;;;5.08;92.37;100495.63;5081920;28;20035;-48
2021/04/20 01:56:22;;;;;;;3.47;2.50;;;5.60;99.90;;;5.14;92.26;100496.97;5089408;28;20437;-42
2021/04/20 01:58:49;;;;;;;4.38;2.25;;;5.70;99.90;;;5.17;92.16;100497.56;5088856;28;20035;-45
2021/04/20 02:01:25;;;;;;;3.38;2.22;;;5.70;99.90;;;5.24;91.88;100498.75;5089552;28;20083;-48
2021/04/20 02:03:51;;;;;;;4.00;1.98;;;5.80;99.90;;;5.24;91.50;100501.34;5088722;28;20039;-44
2021/04/20 02:06:22;;;;;;;4.85;2.80;;;5.80;99.90;;;5.27;91.41;100502.88;5089547;28;20475;-41
2021/04/20 02:08:48;;;;;;;3.13;2.08;;;5.80;99.90;;;5.34;91.20;100498.94;5089066;28;20036;-46
2021/04/20 02:11:18;;;;;;;4.05;1.98;;;5.90;99.90;;;5.39;90.98;100502.00;5079444;28;20028;-44
2021/04/20 02:13:46;;;;;;;3.85;2.40;;;5.90;99.90;;;5.37;91.11;100492.72;5079148;28;20495;-45
2021/04/20 02:16:13;;;;;;;3.85;2.97;;;5.90;99.90;;;5.36;91.01;100491.06;5088965;28;20028;-44
2021/04/20 02:18:46;;;;;;;4.93;2.40;;;5.90;99.90;;;5.37;91.59;100497.88;5088481;28;20042;-43
2021/04/20 02:21:13;;;;;;;4.60;2.25;;;5.90;99.90;;;5.42;91.98;100498.38;5081995;28;20114;-44
2021/04/20 02:23:44;;;;;;;4.05;2.53;;;5.90;99.90;;;5.39;92.31;100498.59;5078973;28;20036;-45
2021/04/20 02:26:23;;;;;;;4.10;2.47;;;5.90;99.90;;;5.36;92.60;100491.06;5079364;28;20051;-39
2021/04/20 02:28:49;;;;;;;4.07;2.65;;;5.90;99.90;;;5.34;92.36;100494.59;5088358;28;20036;-40
2021/04/20 02:31:15;;;;;;;5.30;2.50;;;5.90;99.90;;;5.33;92.49;100490.34;5078518;28;20039;-43
2021/04/20 02:33:43;;;;;;;4.68;2.80;;;5.90;99.90;;;5.35;91.96;100492.84;5088789;28;20566;-42
2021/04/20 02:36:09;;;;;;;7.13;2.65;;;5.90;99.90;;;5.34;92.41;100498.94;5088188;28;20032;-48
2021/04/20 02:38:36;;;;;;;3.50;2.20;;;5.90;99.90;;;5.33;92.03;100497.28;5088375;28;20097;-45
2021/04/20 02:43:33;;;;;;;4.28;1.52;;;5.90;99.90;;;5.33;92.27;100492.13;4970088;22;20079;-43
2021/04/20 02:46:01;;;;;;;5.13;2.30;;;5.90;99.90;;;5.31;91.96;100493.97;5086973;28;20036;-41
2021/04/20 02:48:29;;;;;;;6.13;3.00;;;5.80;99.90;;;5.33;91.88;100492.13;5087004;28;20044;-41
2021/04/20 02:50:56;;;;;;;5.20;2.30;;;5.90;99.90;;;5.34;91.88;100491.19;5087696;28;20352;-44
2021/04/20 02:53:25;;;;;;;6.38;2.25;;;5.90;99.90;;;5.33;91.25;100494.69;5069428;28;20352;-43
2021/04/20 02:55:51;;;;;;;5.13;2.80;;;5.90;99.90;;;5.33;91.22;100494.69;5087068;28;20451;-43
2021/04/20 02:58:23;;;;;;;8.98;3.35;;;5.90;99.90;;;5.32;91.07;100493.06;5069097;28;20081;-44
2021/04/20 03:01:04;;;;;;;4.40;1.98;;;5.80;99.90;;;5.30;91.15;100492.34;5070378;28;20495;-44
2021/04/20 03:03:36;;;;;;;5.43;2.30;;;5.80;99.90;;;5.26;91.64;100496.06;5061621;28;20126;-44
2021/04/20 03:06:03;;;;;;;6.82;3.63;;;5.80;99.90;;;5.26;91.80;100498.66;5069187;28;20206;-45
2021/04/20 03:08:30;;;;;;;8.35;3.45;;;5.80;99.90;;;5.21;92.07;100487.81;5086864;28;20560;-47
2021/04/20 03:11:14;;;;;;;5.65;2.67;;;5.80;99.90;;;5.21;92.16;100495.56;5086222;28;20764;-46
2021/04/20 03:13:43;;;;;;;6.28;2.60;;;5.80;99.90;;;5.17;92.27;100497.56;5080680;28;20039;-45
2021/04/20 03:16:11;;;;;;;9.75;2.88;;;5.80;99.90;;;5.18;92.41;100488.06;5085314;28;20040;-41
2021/04/20 03:18:38;;;;;;;6.22;2.97;;;5.70;99.90;;;5.16;92.48;100488.19;5069458;28;20047;-40
2021/04/20 03:21:11;;;;;;;7.38;3.00;;;5.70;99.90;;;5.16;92.21;100487.34;5086270;28;20473;-48
2021/04/20 03:23:38;;;;;;;7.20;2.72;;;5.70;99.90;;;5.17;92.28;100483.84;5067654;28;20044;-45
2021/04/20 03:26:26;;;;;;;7.38;2.88;;;5.70;99.90;;;5.15;92.57;100483.94;5086551;28;20032;-43
2021/04/20 03:28:57;;;;;;;5.78;3.05;;;5.70;99.90;;;5.12;92.33;100485.91;5069006;28;20458;-43
2021/04/20 03:31:24;;;;;;;4.63;2.20;;;5.70;99.90;;;5.10;92.68;100485.19;5067831;28;20094;-43
2021/04/20 03:33:55;;;;;;;6.82;2.58;;;5.70;99.90;;;5.10;92.38;100485.19;5087327;28;20028;-45
2021/04/20 03:36:27;;;;;;;4.88;2.20;;;5.70;99.90;;;5.08;92.18;100482.72;5068038;28;20032;-42
2021/04/20 03:39:12;;;;;;;5.03;2.47;;;5.60;99.90;;;5.09;91.97;100483.56;5069301;28;20040;-42
2021/04/20 03:41:58;;;;;;;7.72;2.30;;;5.60;99.90;;;5.06;92.03;100484.59;5068708;28;20036;-44
2021/04/20 03:44:58;;;;;;;4.53;2.00;;;5.60;99.90;;;5.05;91.44;100482.13;5086396;28;20134;-41
2021/04/20 03:47:41;;;;;;;4.57;2.00;;;5.60;99.90;;;5.03;91.18;100486.56;5060916;28;20144;-39
2021/04/20 03:50:13;;;;;;;4.25;1.92;;;5.60;99.90;;;5.06;90.58;100487.19;5079520;28;20140;-41
2021/04/20 03:52:46;;;;;;;6.90;3.17;;;5.60;99.90;;;5.00;91.07;100480.69;5086288;28;20047;-43
2021/04/20 03:55:16;;;;;;;4.25;2.40;;;5.50;99.90;;;4.90;91.20;100479.69;5068975;28;20052;-41
2021/04/20 03:57:45;;;;;;;6.22;2.75;;;5.50;99.90;;;4.87;91.50;100476.50;5068175;28;20107;-42
2021/04/20 04:00:15;;;;;;;3.58;2.08;;;5.40;99.90;;;4.84;91.49;100487.03;5068830;28;20036;-42
2021/04/20 04:02:46;;;;;;;4.65;2.42;;;5.40;99.90;;;4.83;91.54;100488.78;5068322;28;20036;-45
2021/04/20 04:05:19;;;;;;;5.93;2.70;;;5.40;99.90;;;4.85;91.79;100494.66;5062479;28;20174;-44
2021/04/20 04:07:50;;;;;;;3.97;2.00;;;5.40;99.90;;;4.89;91.16;100496.09;5084904;28;20044;-42
2021/04/20 04:10:18;;;;;;;7.72;2.60;;;5.40;99.90;;;4.91;91.24;100486.50;5066326;28;20024;-43
2021/04/20 04:12:47;;;;;;;5.45;2.25;;;5.40;99.90;;;4.93;91.38;100497.53;5069233;28;20036;-46
2021/04/20 04:15:16;;;;;;;5.03;2.50;;;5.50;99.90;;;4.93;91.17;100494.13;5069453;28;20028;-48
2021/04/20 04:17:45;;;;;;;5.45;3.13;;;5.40;99.90;;;4.94;91.24;100499.19;5086801;28;20108;-48
2021/04/20 04:20:14;;;;;;;4.88;2.38;;;5.50;99.90;;;4.97;91.25;100488.66;5072563;28;20032;-40
2021/04/20 04:23:24;;;;;;;11.05;2.95;;;5.50;99.90;;;4.96;91.57;100499.91;5091275;28;20127;-40
2021/04/20 04:26:07;;;;;;;4.97;2.25;;;5.50;99.90;;;4.99;91.33;100497.13;5064168;28;20116;-46
2021/04/20 04:28:34;;;;;;;4.80;2.20;;;5.50;99.90;;;5.05;91.49;100500.19;5073548;28;20170;-43
2021/04/20 04:31:05;;;;;;;3.50;2.55;;;5.50;99.90;;;5.04;90.89;100493.38;5072810;28;20742;-44
2021/04/20 04:33:41;;;;;;;4.72;1.88;;;5.60;99.90;;;5.09;90.93;100496.47;5073124;28;20536;-41
2021/04/20 04:36:10;;;;;;;4.90;1.95;;;5.60;99.90;;;5.12;90.76;100499.66;5072871;28;20044;-42
2021/04/20 04:38:38;;;;;;;4.38;2.30;;;5.70;99.90;;;5.11;90.17;100494.59;5072728;28;20486;-44
2021/04/20 04:41:06;;;;;;;3.60;1.65;;;5.60;99.90;;;5.11;90.03;100497.19;5090720;28;20096;-48
2021/04/20 04:43:32;;;;;;;4.22;2.25;;;5.70;99.90;;;5.20;89.53;100499.13;5090071;28;20168;-41
2021/04/20 04:45:58;;;;;;;4.30;2.90;;;5.70;99.90;;;5.26;89.58;100496.06;5090896;28;20032;-42
2021/04/20 04:48:29;;;;;;;4.40;2.72;;;5.80;99.90;;;5.21;89.52;100500.75;5090575;28;20150;-49
2021/04/20 04:50:58;;;;;;;5.95;2.47;;;5.80;99.90;;;5.21;89.65;100501.56;5090372;28;20040;-40
2021/04/20 04:53:26;;;;;;;4.43;2.22;;;5.80;99.90;;;5.29;89.14;100506.19;5072537;28;20398;-49
2021/04/20 04:55:58;;;;;;;6.30;1.80;;;5.80;99.90;;;5.34;88.84;100510.09;5090697;28;20126;-41
2021/04/20 04:58:28;;;;;;;4.88;2.13;;;5.90;99.90;;;5.41;89.20;100513.06;5090696;28;20115;-45
2021/04/20 05:01:01;;;;;;;3.42;1.98;;;6.00;99.90;;;5.43;88.52;100512.97;5089918;28;20467;-48
2021/04/20 05:03:27;;;;;;;5.40;2.38;;;6.00;99.90;;;5.50;88.47;100517.56;5069895;28;20541;-47
2021/04/20 05:06:00;;;;;;;5.10;2.60;;;6.10;99.90;;;5.59;88.38;100516.09;5052004;28;20028;-46
2021/04/20 05:08:27;;;;;;;5.70;2.53;;;6.20;99.90;;;5.65;87.71;100511.31;5070152;28;20036;-42
2021/04/20 05:11:02;;;;;;;4.72;2.20;;;6.30;99.90;;;5.80;87.21;100517.09;5070333;28;20102;-44
2021/04/20 05:13:31;;;;;;;8.45;2.90;;;6.40;99.90;;;6.37;87.17;100518.06;5070466;28;20043;-45
2021/04/20 05:16:07;;;;;;;3.05;1.90;;;7.00;99.90;;;7.97;84.16;100522.53;5070007;28;20052;-43
2021/04/20 05:18:37;;;;;;;;;;;9.10;99.90;;;9.02;78.26;100517.13;5070584;28;20062;-47
2021/04/20 05:21:03;;;;;;;3.67;1.92;;;11.00;99.90;;;9.41;75.52;100518.84;5070045;28;19927;-43
2021/04/20 05:23:29;;;;;;;3.63;2.33;;;11.60;99.90;;;10.00;75.62;100517.84;5069745;28;20036;-45
2021/04/20 05:25:55;;;;;;;4.97;2.30;;;12.30;99.90;;;10.46;74.13;100513.66;5069691;28;20573;-51
2021/04/20 05:28:22;;;;;;;6.13;2.65;;;12.90;99.90;;;11.36;71.12;100518.09;5069636;28;20105;-44
2021/04/20 05:30:52;;;;;;;6.32;2.53;;;13.90;97.60;;;11.88;69.99;100513.88;5069721;28;20036;-44
2021/04/20 05:33:18;;;;;;;4.25;2.40;;;14.70;93.70;;;11.52;69.60;100518.28;5052076;28;20107;-48
2021/04/20 05:35:43;;;;;;;5.47;2.60;;;14.90;88.40;;;12.11;67.58;100520.25;5051505;28;20480;-42
2021/04/20 05:38:09;;;;;;;3.58;1.90;;;15.20;83.80;;;11.75;66.65;100513.44;5069326;28;20032;-50
2021/04/20 05:40:41;;;;;;;5.50;2.17;;;15.10;82.30;;;12.97;65.38;100509.72;5069467;28;20039;-46
2021/04/20 05:43:07;;;;;;;6.68;2.72;;;15.40;86.10;;;13.84;61.42;100508.38;5069025;28;20087;-46
2021/04/20 05:45:34;;;;;;;4.30;1.75;;;16.50;76.10;;;14.62;58.08;100508.59;5069578;28;20033;-47
2021/04/20 05:48:01;;;;;;;5.65;3.75;;;17.20;73.30;;;13.29;59.57;100511.63;5069408;28;20029;-48
2021/04/20 05:50:31;;;;;;;8.40;5.05;;;16.80;70.50;;;11.95;65.60;100520.13;5051141;28;20059;-46
2021/04/20 05:52:59;;;;;;;4.30;2.90;;;15.50;75.20;;;12.21;63.40;100520.97;5069476;28;20089;-46
2021/04/20 05:55:26;;;;;;;3.75;2.17;;;15.20;74.50;;;12.32;63.85;100529.50;5069053;28;20059;-43
2021/04/20 05:57:54;;;;;;;3.60;2.30;;;15.70;75.00;;;12.75;62.31;100524.19;5069123;28;20024;-49
2021/04/20 06:00:23;;;;;;;3.17;1.55;;;16.20;72.00;;;12.21;61.52;100515.75;5069105;28;20119;-46
2021/04/20 06:02:56;;;;;;;2.78;1.75;;;15.90;70.90;;;11.85;62.92;100517.59;5068949;28;20028;-46
2021/04/20 06:05:25;;;;;;;4.80;2.40;;;15.40;72.10;;;11.75;64.08;100516.84;5068716;28;20097;-47
2021/04/20 06:07:59;;;;;;;3.30;2.15;;;15.00;75.40;;;12.47;61.12;100517.50;5068827;28;20084;-48
2021/04/20 06:10:26;;;;;;;4.28;1.95;;;15.60;73.00;;;12.59;60.79;100524.94;5051306;28;20039;-45
2021/04/20 06:12:52;;;;;;;2.85;2.05;;;16.10;70.00;;;12.66;61.73;100522.53;5050887;28;20036;-52
2021/04/20 06:15:22;;;;;;;3.30;2.42;;;16.20;70.00;;;12.84;60.06;100515.38;5050892;28;20104;-42
2021/04/20 06:17:51;;;;;;;3.38;1.92;;;16.40;70.80;;;13.07;60.79;100522.66;5068808;28;20435;-46
2021/04/20 06:20:20;;;;;;;3.40;1.85;;;16.70;68.70;;;13.40;59.84;100524.41;5068968;28;20476;-43
2021/04/20 06:22:48;;;;;;;4.30;1.83;;;17.20;67.30;;;13.64;59.12;100526.25;5068476;28;20543;-44
2021/04/20 06:25:17;;;;;;;3.40;1.90;;;17.40;65.70;;;13.34;59.73;100524.22;5068750;28;20382;-49
2021/04/20 06:27:44;;;;;;;5.30;2.45;;;17.20;65.70;;;13.75;59.45;100509.34;5068517;28;20032;-49
2021/04/20 06:30:11;;;;;;;3.45;2.08;;;17.50;67.30;;;14.19;57.67;100510.63;5068488;28;20028;-49
2021/04/20 06:32:40;;;;;;;6.57;1.90;;;18.20;64.50;;;14.00;58.64;100512.78;5050289;28;20083;-46
2021/04/20 06:35:12;;;;;;;3.63;1.70;;;18.30;63.10;;;14.27;56.87;100518.47;5068181;28;20028;-48
2021/04/20 06:37:42;;;;;;;2.63;1.55;;;18.50;61.80;;;14.72;54.89;100511.00;5068158;28;20051;-45
2021/04/20 06:40:19;;;;;;;2.15;1.58;;;19.10;59.90;;;14.58;55.74;100515.16;5050504;28;20028;-47
2021/04/20 06:42:55;;;;;;;3.63;2.08;;;18.80;61.30;;;14.65;54.14;100520.53;5049987;28;20056;-48
2021/04/20 06:45:55;;;;;;;3.15;1.50;;;19.10;58.30;;;15.20;51.84;100520.41;5050603;28;20172;-44
2021/04/20 06:48:57;;;;;;;6.30;2.20;;;19.50;57.90;;;15.37;50.99;100511.47;5053147;28;20382;-47
2021/04/20 06:51:29;;;;;;;3.78;1.90;;;20.20;55.60;;;15.58;51.58;100519.56;5067967;28;20525;-47
2021/04/20 06:54:39;;;;;;;3.45;1.50;;;20.10;56.00;;;14.29;54.10;100505.19;5070099;28;20107;-45
2021/04/20 06:57:40;;;;;;;3.17;2.17;;;18.20;59.40;;;13.99;56.27;100506.75;5078478;28;20537;-41
2021/04/20 07:00:17;;;;;;;3.53;1.63;;;16.50;65.60;;;13.86;56.03;100511.66;5050613;28;20148;-50
2021/04/20 07:03:10;;;;;;;2.72;2.00;;;15.80;68.20;;;12.87;59.22;100522.09;5079248;28;20052;-52
2021/04/20 07:06:15;;;;;;;1.85;1.40;;;14.50;73.80;;;12.44;60.40;100516.03;5088125;28;20048;-45
2021/04/20 07:09:01;;;;;;;3.75;1.63;;;13.60;78.60;;;12.59;59.69;100521.50;5066432;28;20028;-49
2021/04/20 07:11:34;;;;;;;5.03;2.10;;;13.40;82.20;;;12.37;61.58;100516.81;5070134;28;20060;-48
2021/04/20 07:14:04;;;;;;;2.65;1.60;;;13.10;86.30;;;12.26;62.03;100523.94;5069642;28;20107;-53
2021/04/20 07:16:32;;;;;;;3.72;2.00;;;13.00;89.10;;;12.16;63.00;100520.63;5069767;28;20085;-49
2021/04/20 07:19:28;;;;;;;2.63;1.77;;;12.80;91.60;;;11.79;63.28;100520.84;5087527;28;20040;-51
2021/04/20 07:22:26;;;;;;;2.28;1.85;;;12.70;92.80;;;12.30;61.70;100520.03;5087677;28;20102;-49
2021/04/20 07:25:16;;;;;;;2.97;2.05;;;12.90;94.60;;;12.36;62.23;100513.38;5071995;28;20078;-43
2021/04/20 07:28:26;;;;;;;4.60;1.63;;;13.00;95.30;;;12.75;60.71;100521.59;5087610;28;20563;-45
2021/04/20 07:31:38;;;;;;;4.47;2.30;;;13.30;94.80;;;13.04;60.39;100520.38;5055898;28;20448;-45
2021/04/20 07:34:26;;;;;;;5.47;2.17;;;13.50;95.50;;;13.45;59.81;100510.81;5004978;28;20466;-49
2021/04/20 07:37:58;;;;;;;3.55;1.73;;;13.90;94.90;;;13.68;58.00;100511.03;4988960;28;20057;-48
2021/04/20 07:40:43;;;;;;;3.88;1.80;;;14.40;92.20;;;13.43;60.01;100515.41;4998268;28;20521;-46
2021/04/20 07:43:47;;;;;;;3.78;1.60;;;14.20;93.00;;;13.88;58.10;100507.06;4990279;28;20055;-43
2021/04/20 07:46:22;;;;;;;1.00;0.63;;;14.30;92.50;;;14.27;56.64;100509.78;5004481;28;20508;-42
2021/04/20 07:49:08;;;;;;;1.55;0.73;;;14.70;91.80;;;14.17;55.90;100507.38;5004081;28;20050;-46
2021/04/20 07:51:46;;;;;;;;;;;14.60;89.60;;;14.58;55.07;100504.66;5001745;28;20030;-45
2021/04/20 07:54:15;;;;;;;2.63;0.95;;;14.90;89.00;;;14.89;57.01;100502.88;5004064;28;19918;-46
2021/04/20 07:56:54;;;;;;;1.27;0.80;;;15.30;90.10;;;15.39;55.43;100509.47;5000362;28;20137;-45
2021/04/20 07:59:30;;;;;;;2.47;1.20;;;15.70;89.50;;;15.87;54.91;100510.13;5002350;28;20042;-45
2021/04/20 08:02:03;;;;;;;1.90;1.17;;;16.20;88.80;;;15.74;54.61;100507.28;4999820;28;20050;-45
2021/04/20 08:05:29;;;;;;;2.30;0.80;;;16.30;85.40;;;15.39;52.88;100504.22;4999113;28;20534;-43
2021/04/20 08:08:11;;;;;;;1.73;0.73;;;16.20;82.10;;;15.62;55.35;100506.06;5049181;28;20495;-44
2021/04/20 08:11:11;;;;;;;1.27;0.68;;;16.20;85.40;;;15.66;53.19;100505.53;5087012;28;20052;-46
2021/04/20 08:14:30;;;;;;;1.33;0.73;;;16.20;82.20;;;15.12;51.02;100502.91;5087205;28;20032;-47
2021/04/20 08:17:23;;;;;;;3.92;1.00;;;16.00;77.20;;;15.08;53.73;100506.09;5087022;28;20034;-49
2021/04/20 08:19:57;;;;;;;1.85;0.90;;;15.70;82.70;;;15.04;53.64;100507.41;5070525;28;20032;-44
2021/04/20 08:22:27;;;;;;;1.92;1.10;;;15.60;81.90;;;15.52;53.92;100509.72;5069203;28;20028;-43
2021/04/20 08:25:08;;;;;;;2.15;1.38;;;15.90;82.70;;;15.29;53.68;100506.25;5084126;28;20088;-47
2021/04/20 08:28:02;;;;;;;1.92;1.17;;;15.80;80.30;;;15.39;50.46;100506.84;5069052;28;20032;-47
2021/04/20 08:30:47;;;;;;;2.42;1.13;;;15.90;77.20;;;15.43;51.30;100505.53;5087138;28;20032;-48
2021/04/20 08:33:18;;;;;;;4.00;2.22;;;16.00;78.30;;;15.83;52.41;100504.41;5065544;28;20040;-48
2021/04/20 08:35:49;;;;;;;3.63;1.65;;;16.20;78.10;;;15.88;51.95;100509.13;5086846;28;20040;-47
2021/04/20 08:38:35;;;;;;;2.30;1.67;;;16.30;77.90;;;16.03;49.16;100504.72;5066443;28;20371;-51
2021/04/20 08:41:30;;;;;;;3.80;1.88;;;16.50;76.10;;;16.21;48.06;100502.56;5067920;28;20114;-50
2021/04/20 08:44:54;;;;;;;3.20;2.22;;;16.80;74.80;;;16.19;49.84;100493.22;5069701;28;20061;-51
2021/04/20 08:47:31;;;;;;;4.25;2.72;;;16.50;75.00;;;16.74;50.95;100497.22;5060228;28;20525;-45
2021/04/20 08:50:42;;;;;;;8.30;3.28;;;17.00;76.80;;;16.66;47.55;100482.34;5067971;28;20051;-50
2021/04/20 08:54:01;;;;;;;3.78;3.20;;;17.20;72.50;;;16.72;48.61;100486.88;5084402;28;20097;-48
2021/04/20 08:56:40;;;;;;;4.57;3.30;;;17.10;74.60;;;16.61;49.25;100474.16;5085293;28;20039;-45
2021/04/20 08:59:15;;;;;;;6.40;3.22;;;17.10;73.50;;;16.69;48.15;100483.81;5087195;28;20455;-43
2021/04/20 09:02:00;;;;;;;3.65;3.10;;;17.10;73.70;;;17.11;50.04;100483.06;5085644;28;20043;-45
2021/04/20 09:05:06;;;;;;;3.72;2.80;;;17.30;74.50;;;17.43;47.10;100485.22;5084690;28;20130;-45
2021/04/20 09:07:50;;;;;;;3.33;2.30;;;17.70;72.90;;;17.61;46.33;100491.84;5087166;28;20046;-46
2021/04/20 09:10:19;;;;;;;4.22;2.53;;;18.10;69.40;;;17.61;47.89;100487.41;5089139;28;20206;-50
2021/04/20 09:12:50;;;;;;;4.82;2.35;;;18.10;69.90;;;17.95;47.93;100483.25;5086825;28;20119;-43
2021/04/20 09:15:19;;;;;;;2.90;2.55;;;18.30;70.90;;;17.98;47.51;100478.38;5069252;28;20407;-50
2021/04/20 09:17:51;;;;;;;3.90;2.30;;;18.50;69.60;;;18.36;46.19;100480.66;5072431;28;20344;-50
2021/04/20 09:20:51;;;;;;;5.10;2.80;;;18.70;68.50;;;18.39;44.58;100482.91;5072777;28;20028;-49
2021/04/20 09:24:19;;;;;;;3.53;2.42;;;18.90;65.80;;;18.86;42.86;100482.94;5074144;28;20310;-47
2021/04/20 09:27:16;;;;;;;3.80;2.63;;;19.20;65.20;;;19.11;43.38;100479.75;5080418;28;20052;-44
2021/04/20 09:30:02;;;;;;;;;;;19.70;64.60;;;18.43;40.92;100479.66;5075890;28;20074;-46
2021/04/20 09:32:38;;;;;;;3.55;2.42;;;19.30;58.70;;;18.89;43.89;100477.28;5090691;28;20267;-46
2021/04/20 09:35:06;;;;;;;4.82;3.30;;;19.50;64.00;;;18.99;44.49;100470.78;5072436;28;20388;-47
2021/04/20 09:37:39;;;;;;;4.32;2.88;;;19.50;63.70;;;19.04;44.33;100476.28;5072069;28;20028;-46
2021/04/20 09:40:06;;;;;;;5.07;3.10;;;19.50;63.70;;;18.00;45.59;100471.09;5072356;28;20024;-43
2021/04/20 09:42:35;;;;;;;4.57;3.78;;;19.00;62.90;;;17.87;46.14;100477.13;5071827;28;20376;-48
2021/04/20 09:45:38;;;;;;;6.45;3.90;;;18.70;63.80;;;17.20;42.89;100484.59;5071902;28;20090;-46
2021/04/20 09:48:31;;;;;;;6.22;3.85;;;18.30;59.60;;;16.59;45.00;100478.78;5072157;28;20077;-44
2021/04/20 09:51:15;;;;;;;4.20;3.03;;;17.70;62.20;;;16.92;46.77;100481.88;5072696;28;20032;-46
2021/04/20 09:54:20;;;;;;;3.55;2.95;;;17.60;65.10;;;17.47;45.20;100481.22;5072825;28;20035;-48
2021/04/20 09:57:01;;;;;;;4.95;3.58;;;18.10;64.10;;;18.00;45.43;100478.19;5089711;28;20502;-47
2021/04/20 09:59:54;;;;;;;4.72;4.22;;;18.50;64.40;;;18.31;43.68;100483.88;5072191;28;20032;-47
2021/04/20 10:02:46;;;;;;;2.95;2.50;;;18.90;62.90;;;18.27;41.87;100477.38;5073290;28;20054;-50
2021/04/20 10:05:56;;;;;;;5.55;3.15;;;19.10;60.30;;;18.57;42.88;100470.00;5089846;28;20399;-47
2021/04/20 10:08:35;;;;;;;4.13;2.92;;;19.10;61.80;;;18.51;42.57;100474.22;5090001;28;20036;-51
2021/04/20 10:11:26;;;;;;;3.33;2.38;;;19.30;61.60;;;18.73;42.57;100479.44;5089806;28;20032;-44
2021/04/20 10:14:27;;;;;;;2.75;2.53;;;19.20;60.70;;;19.51;41.16;100478.81;5089553;28;20490;-44
2021/04/20 10:17:41;;;;;;;5.85;2.28;;;19.70;61.60;;;19.13;40.11;100467.16;5087658;28;20071;-51
2021/04/20 10:20:47;;;;;;;3.33;2.53;;;19.90;57.90;;;18.96;42.00;100477.25;5048460;28;20058;-46
2021/04/20 10:23:36;;;;;;;2.33;2.13;;;19.80;59.00;;;19.34;41.73;100480.22;5044342;28;20051;-46
2021/04/20 10:26:21;;;;;;;5.07;3.42;;;19.90;60.20;;;19.35;40.05;100471.28;5089422;28;20081;-45
2021/04/20 10:29:17;;;;;;;3.27;2.60;;;20.00;58.20;;;19.70;40.82;100479.84;5089400;28;20043;-45
2021/04/20 10:32:12;;;;;;;3.92;3.03;;;20.10;59.50;;;20.03;38.31;100473.72;5089605;28;20080;-42
2021/04/20 10:35:12;;;;;;;3.17;2.83;;;20.70;59.00;;;19.46;41.15;100478.59;5089195;28;20387;-51
2021/04/20 10:37:43;;;;;;;3.55;3.25;;;20.20;59.50;;;19.35;43.08;100467.81;5088136;28;20067;-42
2021/04/20 10:40:13;;;;;;;3.17;2.58;;;20.10;60.10;;;19.20;42.95;100479.38;5089410;28;20039;-47
2021/04/20 10:42:39;;;;;;;2.65;2.30;;;20.00;59.50;;;18.99;43.31;100476.06;5070332;28;20055;-44
2021/04/20 10:45:08;;;;;;;3.58;2.65;;;19.80;59.10;;;19.00;43.12;100475.03;5088942;28;20036;-47
2021/04/20 10:47:41;;;;;;;3.10;2.63;;;19.60;60.00;;;19.04;42.34;100465.72;5088925;28;20090;-41
2021/04/20 10:50:16;;;;;;;2.75;2.13;;;19.60;59.80;;;18.95;42.96;100472.19;5071062;28;20035;-45
2021/04/20 10:52:43;;;;;;;4.17;1.97;;;19.60;59.90;;;18.63;43.85;100466.59;5071626;28;20035;-48
2021/04/20 10:55:11;;;;;;;2.90;2.28;;;19.50;59.40;;;19.00;42.44;100467.13;5070994;28;20280;-47
2021/04/20 10:57:44;;;;;;;4.75;1.92;;;19.60;59.30;;;18.88;42.40;100466.91;5070471;28;20066;-48
2021/04/20 11:00:16;;;;;;;3.65;2.35;;;19.60;58.40;;;18.89;42.27;100466.72;5088817;28;20032;-47
2021/04/20 11:02:51;;;;;;;2.08;1.58;;;19.60;58.70;;;18.48;42.42;100464.06;5088566;28;20365;-45